Time;durP1;ratioP1;P1;durP2;ratioP2;P2;SDS_P1;SDS_P2;PMS_P1;PMS_P2;Temp;Humidity;BMP_temperature;BMP_pressure;BME280_temperature;BME280_humidity;BME280_pressure;Samples;Min_cycle;Max_cycle;Signal;HPM_P1;HPM_P2
2021/04/21 00:01:38;;;;;;;16.93;12.40;;;12.00;1.00;;;;;;5071639;28;20436;-61
2021/04/21 00:04:07;;;;;;;13.57;12.27;;;12.10;1.00;;;;;;5069552;28;20468;-61
2021/04/21 00:06:34;;;;;;;15.10;12.90;;;12.10;1.00;;;;;;5052612;28;20584;-61
2021/04/21 00:09:00;;;;;;;14.70;13.20;;;12.10;1.00;;;;;;5070148;28;20446;-61
2021/04/21 00:11:27;;;;;;;16.73;13.70;;;12.10;1.00;;;;;;5070172;28;20781;-61
2021/04/21 00:13:53;;;;;;;15.30;13.80;;;12.10;1.00;;;;;;5071278;28;20807;-62
2021/04/21 00:16:19;;;;;;;14.73;13.20;;;12.10;1.00;;;;;;5069682;28;20449;-61
2021/04/21 00:18:45;;;;;;;14.33;12.83;;;12.30;1.00;;;;;;5070417;28;20196;-61
2021/04/21 00:21:12;;;;;;;14.80;13.40;;;12.20;1.00;;;;;;5071050;28;20454;-62
2021/04/21 00:23:39;;;;;;;15.37;13.80;;;12.30;1.00;;;;;;5071055;28;20846;-61
2021/04/21 00:26:09;;;;;;;15.83;13.53;;;12.30;1.00;;;;;;5070984;28;20476;-62
2021/04/21 00:28:37;;;;;;;15.23;13.50;;;12.20;1.00;;;;;;5070772;28;21179;-61
2021/04/21 00:31:05;;;;;;;15.30;12.97;;;12.20;1.00;;;;;;5069593;28;20449;-61
2021/04/21 00:33:34;;;;;;;13.77;12.37;;;12.20;1.00;;;;;;5069020;28;20504;-61
2021/04/21 00:36:02;;;;;;;16.73;13.57;;;12.10;1.00;;;;;;5067715;28;20950;-61
2021/04/21 00:38:28;;;;;;;14.77;13.27;;;12.10;1.00;;;;;;5067787;28;20449;-61
2021/04/21 00:41:09;;;;;;;16.83;14.73;;;12.10;1.00;;;;;;5070885;28;20527;-61
2021/04/21 00:44:23;;;;;;;15.33;13.80;;;12.10;1.00;;;;;;5069765;28;20502;-62
2021/04/21 00:46:55;;;;;;;15.03;13.40;;;12.00;1.00;;;;;;5023841;28;20849;-61
2021/04/21 00:49:36;;;;;;;15.47;12.77;;;12.10;1.00;;;;;;5070636;28;20429;-61
2021/04/21 00:52:09;;;;;;;15.47;13.87;;;12.10;1.00;;;;;;5068735;28;20500;-61
2021/04/21 00:54:53;;;;;;;14.20;12.43;;;12.10;1.00;;;;;;5070567;28;20456;-61
2021/04/21 00:57:37;;;;;;;14.40;13.00;;;12.00;1.00;;;;;;5088989;28;20930;-61
2021/04/21 01:00:09;;;;;;;15.47;13.97;;;12.00;1.00;;;;;;5071985;28;20429;-60
2021/04/21 01:02:39;;;;;;;15.97;13.80;;;11.90;1.00;;;;;;5068051;28;20444;-61
2021/04/21 01:05:12;;;;;;;19.70;15.60;;;11.90;1.00;;;;;;5065979;28;20457;-61
2021/04/21 01:07:44;;;;;;;16.10;14.40;;;11.90;1.00;;;;;;5068600;28;20490;-61
2021/04/21 01:10:11;;;;;;;16.67;14.93;;;11.80;1.00;;;;;;5065950;28;20445;-61
2021/04/21 01:12:38;;;;;;;15.37;13.50;;;11.70;1.00;;;;;;5068262;28;21935;-61
2021/04/21 01:15:06;;;;;;;15.97;14.37;;;11.60;1.00;;;;;;5068940;28;20457;-61
2021/04/21 01:17:33;;;;;;;16.10;14.43;;;11.50;1.00;;;;;;5070389;28;20448;-61
2021/04/21 01:19:59;;;;;;;18.00;15.63;;;11.40;1.00;;;;;;5070379;28;20927;-61
2021/04/21 01:22:42;;;;;;;16.97;15.27;;;11.30;1.00;;;;;;5070182;28;20452;-61
2021/04/21 01:25:16;;;;;;;15.00;13.40;;;11.20;1.00;;;;;;5069526;28;20183;-61
2021/04/21 01:27:54;;;;;;;16.37;14.60;;;11.20;1.00;;;;;;5070057;28;21046;-61
2021/04/21 01:30:21;;;;;;;15.10;13.50;;;11.20;1.00;;;;;;5065318;28;20475;-61
2021/04/21 01:32:52;;;;;;;17.07;15.27;;;11.10;1.00;;;;;;5082924;28;20974;-61
2021/04/21 01:35:21;;;;;;;17.43;14.87;;;11.20;1.00;;;;;;5073640;28;20532;-61
2021/04/21 01:37:49;;;;;;;16.43;14.00;;;11.10;1.00;;;;;;5070167;28;20784;-61
2021/04/21 01:40:21;;;;;;;16.97;14.60;;;11.10;1.00;;;;;;5068192;28;20443;-61
2021/04/21 01:42:55;;;;;;;17.10;15.30;;;11.00;1.00;;;;;;5066113;28;20810;-62
2021/04/21 01:45:28;;;;;;;16.40;14.50;;;10.90;1.00;;;;;;5070070;28;20495;-61
2021/04/21 01:47:57;;;;;;;16.37;14.77;;;10.90;1.00;;;;;;5069967;28;20439;-61
2021/04/21 01:50:23;;;;;;;18.27;15.07;;;10.70;1.00;;;;;;5067120;28;20454;-61
2021/04/21 01:53:11;;;;;;;18.67;14.07;;;10.80;22.40;;;;;;5067622;28;20463;-61
2021/04/21 01:55:48;;;;;;;15.97;14.30;;;10.70;68.50;;;;;;5068181;28;20436;-61
2021/04/21 01:58:26;;;;;;;16.43;14.60;;;10.60;99.90;;;;;;5067115;28;20908;-61
2021/04/21 02:00:56;;;;;;;20.67;15.23;;;10.60;99.90;;;;;;5068387;28;20523;-61
2021/04/21 02:03:25;;;;;;;22.17;16.60;;;10.70;99.90;;;;;;5070046;28;20436;-61
2021/04/21 02:06:15;;;;;;;15.67;14.13;;;10.60;99.90;;;;;;5068702;28;20795;-61
2021/04/21 02:08:56;;;;;;;18.80;15.57;;;10.50;99.90;;;;;;5069194;28;20451;-61
2021/04/21 02:11:28;;;;;;;21.17;16.70;;;10.50;99.90;;;;;;5069985;28;20435;-61
2021/04/21 02:14:24;;;;;;;21.63;15.77;;;10.40;99.90;;;;;;5068137;28;20473;-61
2021/04/21 02:17:24;;;;;;;16.87;14.67;;;10.40;99.90;;;;;;5065795;28;20438;-61
2021/04/21 02:20:01;;;;;;;16.93;15.23;;;10.40;99.90;;;;;;5068528;28;20462;-61
2021/04/21 02:22:33;;;;;;;19.30;16.57;;;10.40;99.90;;;;;;5069821;28;20437;-60
2021/04/21 02:25:15;;;;;;;19.80;16.60;;;10.40;99.90;;;;;;5066418;28;20450;-61
2021/04/21 02:27:46;;;;;;;21.83;18.00;;;10.30;99.90;;;;;;5072913;28;20495;-61
2021/04/21 02:30:27;;;;;;;23.27;18.10;;;10.20;99.90;;;;;;5072892;28;20962;-61
2021/04/21 02:33:02;;;;;;;23.20;20.63;;;10.20;99.90;;;;;;5073317;28;20461;-61
2021/04/21 02:36:08;;;;;;;34.00;24.70;;;10.20;99.90;;;;;;5072908;28;20454;-61
2021/04/21 02:38:42;;;;;;;32.07;26.97;;;10.20;99.90;;;;;;5069528;28;20435;-61
2021/04/21 02:41:13;;;;;;;47.27;40.47;;;10.10;99.90;;;;;;5072568;28;20428;-61
2021/04/21 02:43:48;;;;;;;55.93;46.40;;;10.10;99.90;;;;;;5072150;28;20455;-60
2021/04/21 02:46:19;;;;;;;51.80;45.47;;;10.10;99.90;;;;;;5071159;28;20432;-61
2021/04/21 02:49:06;;;;;;;54.67;47.30;;;10.00;99.90;;;;;;5072292;28;20791;-60
2021/04/21 02:51:32;;;;;;;57.43;47.37;;;10.00;99.90;;;;;;5072581;28;20435;-61
2021/04/21 02:54:21;;;;;;;59.27;47.13;;;10.00;99.90;;;;;;5073172;28;20981;-61
2021/04/21 02:56:57;;;;;;;57.97;46.57;;;9.90;99.90;;;;;;5072880;28;20187;-60
2021/04/21 02:59:42;;;;;;;76.53;44.87;;;10.00;99.90;;;;;;5071106;28;20869;-61
2021/04/21 03:02:19;;;;;;;48.07;41.23;;;10.00;99.90;;;;;;5072874;28;20815;-60
2021/04/21 03:05:07;;;;;;;51.43;41.30;;;10.00;99.90;;;;;;5069952;28;20772;-61
2021/04/21 03:07:45;;;;;;;43.20;35.63;;;9.90;99.90;;;;;;5072399;28;20483;-61
2021/04/21 03:10:14;;;;;;;39.27;31.87;;;9.90;99.90;;;;;;5067309;28;20443;-60
2021/04/21 03:12:57;;;;;;;38.03;31.00;;;9.90;99.90;;;;;;5072672;28;20477;-60
2021/04/21 03:15:26;;;;;;;33.80;26.67;;;9.80;99.90;;;;;;5072447;28;20457;-60
2021/04/21 03:17:55;;;;;;;29.10;22.67;;;9.80;99.90;;;;;;5072598;28;20498;-61
2021/04/21 03:20:22;;;;;;;24.07;20.50;;;9.80;99.90;;;;;;5070690;28;20835;-60
2021/04/21 03:22:53;;;;;;;22.53;19.40;;;9.80;99.90;;;;;;5072300;28;21022;-60
2021/04/21 03:25:25;;;;;;;21.60;18.60;;;9.70;99.90;;;;;;5071874;28;20516;-61
2021/04/21 03:27:55;;;;;;;23.83;18.47;;;9.60;99.90;;;;;;5072084;28;20469;-60
2021/04/21 03:30:24;;;;;;;24.50;19.73;;;9.60;99.90;;;;;;5072333;28;20440;-61
2021/04/21 03:32:53;;;;;;;20.87;17.77;;;9.60;99.90;;;;;;5072318;28;21031;-61
2021/04/21 03:35:23;;;;;;;24.67;20.20;;;9.60;99.90;;;;;;5064850;28;20495;-61
2021/04/21 03:38:10;;;;;;;22.77;19.80;;;9.50;99.90;;;;;;5070526;28;20454;-60
2021/04/21 03:40:37;;;;;;;20.53;18.00;;;9.50;99.90;;;;;;5070261;28;20438;-60
2021/04/21 03:43:04;;;;;;;23.90;18.93;;;9.50;99.90;;;;;;5069593;28;20438;-61
2021/04/21 03:45:30;;;;;;;20.97;18.37;;;9.40;99.90;;;;;;5070569;28;20450;-60
2021/04/21 03:47:57;;;;;;;23.87;18.30;;;9.40;99.90;;;;;;5071824;28;20432;-60
2021/04/21 03:50:25;;;;;;;22.13;18.87;;;9.40;99.90;;;;;;5069627;28;20975;-61
2021/04/21 03:53:17;;;;;;;24.73;19.63;;;9.50;99.90;;;;;;5071537;28;20462;-61
2021/04/21 03:55:44;;;;;;;20.97;18.07;;;9.60;99.90;;;;;;5067507;28;20458;-60
2021/04/21 03:58:11;;;;;;;21.57;16.70;;;9.50;99.90;;;;;;5067786;28;20479;-60
2021/04/21 04:00:40;;;;;;;21.33;16.50;;;9.50;99.90;;;;;;5070576;28;20536;-60
2021/04/21 04:03:19;;;;;;;18.33;15.20;;;9.40;99.90;;;;;;5070481;28;20453;-61
2021/04/21 04:05:57;;;;;;;18.80;16.30;;;9.40;99.90;;;;;;5068789;28;20455;-60
2021/04/21 04:08:26;;;;;;;17.57;15.63;;;9.30;99.90;;;;;;5071361;28;20504;-61
2021/04/21 04:10:54;;;;;;;19.40;15.87;;;9.30;99.90;;;;;;5069129;28;20451;-62
2021/04/21 04:13:20;;;;;;;17.33;15.13;;;9.30;99.90;;;;;;5070707;28;20553;-63
2021/04/21 04:15:49;;;;;;;17.90;15.97;;;9.30;99.90;;;;;;5071449;28;21153;-63
2021/04/21 04:18:15;;;;;;;17.70;14.80;;;9.40;99.90;;;;;;5075343;28;20442;-63
2021/04/21 04:20:42;;;;;;;19.47;16.53;;;9.40;99.90;;;;;;5082873;28;20460;-63
2021/04/21 04:23:10;;;;;;;17.93;15.50;;;9.40;99.90;;;;;;5085981;28;20429;-61
2021/04/21 04:25:43;;;;;;;17.90;15.70;;;9.40;99.90;;;;;;5091468;28;20776;-61
2021/04/21 04:28:10;;;;;;;21.30;15.33;;;9.40;99.90;;;;;;5070750;28;20496;-61
2021/04/21 04:30:39;;;;;;;18.60;16.60;;;9.40;99.90;;;;;;5070966;28;20438;-61
2021/04/21 04:33:06;;;;;;;20.03;15.10;;;9.40;99.90;;;;;;5070732;28;21061;-64
2021/04/21 04:35:33;;;;;;;21.57;17.10;;;9.40;99.90;;;;;;5068102;28;20577;-61
2021/04/21 04:38:01;;;;;;;20.27;16.73;;;9.40;99.90;;;;;;5070842;28;20945;-61
2021/04/21 04:40:27;;;;;;;19.27;15.60;;;9.40;99.90;;;;;;5070944;28;20434;-61
2021/04/21 04:42:53;;;;;;;16.53;14.30;;;9.40;99.90;;;;;;5069507;28;20450;-61
2021/04/21 04:45:20;;;;;;;23.47;17.07;;;9.50;99.90;;;;;;5070518;28;20430;-61
2021/04/21 04:47:54;;;;;;;19.37;15.40;;;9.50;99.90;;;;;;5069562;28;20445;-61
2021/04/21 04:50:22;;;;;;;21.60;15.73;;;9.40;99.90;;;;;;5068565;28;20453;-62
2021/04/21 04:52:51;;;;;;;16.73;14.20;;;9.50;99.90;;;;;;5070377;28;20492;-61
2021/04/21 04:55:19;;;;;;;18.30;16.37;;;9.60;99.90;;;;;;5068814;28;20440;-61
2021/04/21 04:57:47;;;;;;;23.13;18.80;;;9.60;99.90;;;;;;5070587;28;20445;-61
2021/04/21 05:00:15;;;;;;;16.63;14.93;;;9.60;99.90;;;;;;5070305;28;20445;-61
2021/04/21 05:02:53;;;;;;;16.57;14.70;;;9.60;99.90;;;;;;5083980;28;20862;-60
2021/04/21 05:05:19;;;;;;;16.43;14.33;;;9.70;99.90;;;;;;5090824;28;20940;-60
2021/04/21 05:07:58;;;;;;;16.57;14.33;;;9.80;99.90;;;;;;5090701;28;20450;-61
2021/04/21 05:10:36;;;;;;;15.60;13.87;;;9.80;99.90;;;;;;5079690;28;20529;-61
2021/04/21 05:13:06;;;;;;;18.40;15.87;;;9.90;99.90;;;;;;5068677;28;20474;-61
2021/04/21 05:15:54;;;;;;;17.43;14.20;;;10.10;99.90;;;;;;5069835;28;20444;-61
2021/04/21 05:18:22;;;;;;;17.60;15.27;;;10.30;99.90;;;;;;5070324;28;20429;-60
2021/04/21 05:21:19;;;;;;;16.60;14.87;;;10.50;99.90;;;;;;5070273;28;20447;-61
2021/04/21 05:24:17;;;;;;;16.97;15.20;;;10.80;99.90;;;;;;5070067;28;20468;-61
2021/04/21 05:26:51;;;;;;;15.13;13.50;;;11.10;99.90;;;;;;5070170;28;20535;-61
2021/04/21 05:29:20;;;;;;;16.30;13.77;;;11.10;99.90;;;;;;5068902;28;20472;-61
2021/04/21 05:32:21;;;;;;;16.47;14.00;;;11.10;99.90;;;;;;5070114;28;20432;-61
2021/04/21 05:35:43;;;;;;;15.70;14.00;;;11.20;99.90;;;;;;5070027;28;20959;-62
2021/04/21 05:38:30;;;;;;;15.40;12.37;;;11.30;99.90;;;;;;5079398;28;20865;-61
2021/04/21 05:41:17;;;;;;;15.30;13.10;;;11.30;99.90;;;;;;5090381;28;21058;-61
2021/04/21 05:44:16;;;;;;;14.90;13.40;;;11.30;99.90;;;;;;5068838;28;20508;-66
2021/04/21 05:47:27;;;;;;;15.57;13.13;;;11.30;99.90;;;;;;5077660;28;20531;-62
2021/04/21 05:50:30;;;;;;;16.70;13.67;;;11.50;99.90;;;;;;5090105;28;20523;-61
2021/04/21 05:53:14;;;;;;;16.57;14.77;;;11.50;99.90;;;;;;5083066;28;20467;-61
2021/04/21 05:55:52;;;;;;;19.00;13.63;;;11.60;99.90;;;;;;5069912;28;20423;-61
2021/04/21 05:59:00;;;;;;;14.70;13.30;;;11.60;99.90;;;;;;5068735;28;20436;-61
2021/04/21 06:01:34;;;;;;;16.30;14.63;;;11.70;99.90;;;;;;4999348;28;20935;-61
2021/04/21 06:04:00;;;;;;;21.33;16.00;;;12.00;99.90;;;;;;5073260;28;20453;-61
2021/04/21 06:06:26;;;;;;;15.73;14.13;;;12.10;99.90;;;;;;5073849;28;20432;-62
2021/04/21 06:08:52;;;;;;;17.43;15.63;;;12.20;99.90;;;;;;5072634;28;20557;-61
2021/04/21 06:11:30;;;;;;;18.40;14.17;;;12.30;97.80;;;;;;5073881;28;20897;-61
2021/04/21 06:13:58;;;;;;;18.37;14.80;;;12.50;79.30;;;;;;5073775;28;20814;-61
2021/04/21 06:16:25;;;;;;;16.87;13.57;;;12.60;16.30;;;;;;5074023;28;20516;-61
2021/04/21 06:18:55;;;;;;;17.33;14.00;;;12.60;19.90;;;;;;5073715;28;20432;-61
2021/04/21 06:21:22;;;;;;;19.10;16.50;;;12.90;15.10;;;;;;5081984;28;20486;-61
2021/04/21 06:23:48;;;;;;;17.77;15.93;;;13.00;7.20;;;;;;5082798;28;20448;-61
2021/04/21 06:26:20;;;;;;;16.97;15.20;;;13.20;1.00;;;;;;5093682;28;20439;-58
2021/04/21 06:29:07;;;;;;;17.60;14.87;;;13.30;1.00;;;;;;5087209;28;20568;-59
2021/04/21 06:31:33;;;;;;;14.10;12.53;;;13.40;1.00;;;;;;5073179;28;20448;-58
2021/04/21 06:33:59;;;;;;;15.57;12.70;;;13.50;1.00;;;;;;5073041;28;20976;-57
2021/04/21 06:36:42;;;;;;;14.03;12.63;;;13.60;1.00;;;;;;5073031;28;20448;-59
2021/04/21 06:39:09;;;;;;;15.07;13.17;;;13.80;1.00;;;;;;5073421;28;20180;-58
2021/04/21 06:41:35;;;;;;;14.43;13.10;;;13.80;1.00;;;;;;5073134;28;20441;-58
2021/04/21 06:44:01;;;;;;;15.50;14.00;;;13.70;1.00;;;;;;5070441;28;20449;-58
2021/04/21 06:46:26;;;;;;;14.67;13.20;;;13.90;1.00;;;;;;5089817;28;20895;-57
2021/04/21 06:49:01;;;;;;;19.87;13.83;;;14.10;1.00;;;;;;5077028;28;20460;-58
2021/04/21 06:51:29;;;;;;;14.37;12.87;;;14.50;1.00;;;;;;5072317;28;20190;-58
2021/04/21 06:53:56;;;;;;;20.27;12.70;;;14.80;1.00;;;;;;5071491;28;20476;-58
2021/04/21 06:56:33;;;;;;;15.07;12.13;;;15.10;1.00;;;;;;5071240;28;20438;-57
2021/04/21 06:59:00;;;;;;;15.83;13.07;;;15.00;1.00;;;;;;5072721;28;20442;-58
2021/04/21 07:01:28;;;;;;;14.37;12.87;;;14.60;1.00;;;;;;5072527;28;20449;-58
2021/04/21 07:04:12;;;;;;;13.73;12.30;;;14.60;1.00;;;;;;5071999;28;20535;-58
2021/04/21 07:06:39;;;;;;;15.40;12.80;;;14.60;1.00;;;;;;5073002;28;20449;-60
2021/04/21 07:09:14;;;;;;;15.60;13.03;;;14.70;1.00;;;;;;5073028;28;21016;-59
2021/04/21 07:11:42;;;;;;;14.90;12.63;;;14.70;1.00;;;;;;5071788;28;20449;-57
2021/04/21 07:14:10;;;;;;;14.83;12.20;;;14.50;1.00;;;;;;5072400;28;20977;-59
2021/04/21 07:16:37;;;;;;;13.93;12.37;;;14.80;1.00;;;;;;5072563;28;20939;-59
2021/04/21 07:19:10;;;;;;;15.13;13.63;;;15.20;1.00;;;;;;5072680;28;20448;-58
2021/04/21 07:21:37;;;;;;;12.80;11.60;;;15.60;1.00;;;;;;5072088;28;20583;-59
2021/04/21 07:24:05;;;;;;;15.20;13.07;;;16.00;1.00;;;;;;5070683;28;20510;-58
2021/04/21 07:26:39;;;;;;;13.73;12.23;;;16.40;1.00;;;;;;5071969;28;20949;-59
2021/04/21 07:29:07;;;;;;;13.77;12.37;;;16.40;1.00;;;;;;5071753;28;20546;-59
2021/04/21 07:31:38;;;;;;;15.90;12.03;;;16.40;1.00;;;;;;5071432;28;20445;-58
2021/04/21 07:34:03;;;;;;;13.80;12.40;;;16.40;1.00;;;;;;5072259;28;20539;-59
2021/04/21 07:36:29;;;;;;;18.70;12.97;;;16.00;1.00;;;;;;5070282;28;20450;-59
2021/04/21 07:39:06;;;;;;;13.90;12.43;;;15.50;1.00;;;;;;5070969;28;20183;-59
2021/04/21 07:41:33;;;;;;;14.00;12.50;;;15.10;1.00;;;;;;5080824;28;20263;-57
2021/04/21 07:43:59;;;;;;;13.10;11.70;;;14.90;1.00;;;;;;5092643;28;20803;-57
2021/04/21 07:46:25;;;;;;;13.77;11.33;;;14.70;1.00;;;;;;5091695;28;20445;-57
2021/04/21 07:48:51;;;;;;;11.90;10.70;;;14.70;1.00;;;;;;5068819;28;20449;-59
2021/04/21 07:51:26;;;;;;;13.47;12.17;;;14.30;1.00;;;;;;5075377;28;20637;-59
2021/04/21 07:54:03;;;;;;;13.10;11.63;;;14.30;1.00;;;;;;5083811;28;20514;-60
2021/04/21 07:56:49;;;;;;;11.40;10.30;;;14.50;1.00;;;;;;5071841;28;20465;-60
2021/04/21 07:59:28;;;;;;;14.37;11.40;;;14.80;1.00;;;;;;5071883;28;20438;-60
2021/04/21 08:02:01;;;;;;;12.77;11.47;;;14.90;1.00;;;;;;5072357;28;20486;-59
2021/04/21 08:04:28;;;;;;;15.03;11.40;;;15.10;1.00;;;;;;5072662;28;20516;-61
2021/04/21 08:06:57;;;;;;;12.97;11.70;;;15.40;1.00;;;;;;5071605;28;20433;-59
2021/04/21 08:09:34;;;;;;;12.70;11.30;;;15.80;1.00;;;;;;5070268;28;20426;-60
2021/04/21 08:12:13;;;;;;;14.53;12.13;;;15.80;1.00;;;;;;5074301;28;20434;-59
2021/04/21 08:14:48;;;;;;;14.57;11.83;;;15.70;1.00;;;;;;5087194;28;20461;-59
2021/04/21 08:17:15;;;;;;;13.17;11.67;;;15.60;1.00;;;;;;5070980;28;20444;-58
2021/04/21 08:19:44;;;;;;;13.63;12.23;;;15.60;1.00;;;;;;5070899;28;20880;-58
2021/04/21 08:22:10;;;;;;;15.17;13.60;;;15.60;1.00;;;;;;5071206;28;20436;-58
2021/04/21 08:24:44;;;;;;;14.90;12.10;;;15.70;1.00;;;;;;5070614;28;20445;-59
2021/04/21 08:27:13;;;;;;;16.20;11.90;;;15.70;1.00;;;;;;5070360;28;20841;-59
2021/04/21 08:29:40;;;;;;;14.47;12.93;;;15.80;1.00;;;;;;5091376;28;20531;-61
2021/04/21 08:32:07;;;;;;;13.43;12.13;;;15.80;1.00;;;;;;5085636;28;20437;-59
2021/04/21 08:34:33;;;;;;;13.13;11.80;;;16.20;1.00;;;;;;5070691;28;20518;-60
2021/04/21 08:36:59;;;;;;;13.07;11.67;;;16.40;1.00;;;;;;5068699;28;20844;-58
2021/04/21 08:39:25;;;;;;;15.00;12.43;;;16.50;1.00;;;;;;5070900;28;20476;-57
2021/04/21 08:41:56;;;;;;;14.63;13.10;;;16.50;1.00;;;;;;5070974;28;20746;-59
2021/04/21 08:44:23;;;;;;;13.60;12.17;;;16.70;1.00;;;;;;5070662;28;20473;-59
2021/04/21 08:46:50;;;;;;;14.07;12.57;;;17.00;1.00;;;;;;5070680;28;20453;-58
2021/04/21 08:49:16;;;;;;;14.20;12.40;;;16.90;1.00;;;;;;5075529;28;21028;-59
2021/04/21 08:51:42;;;;;;;13.97;12.60;;;16.70;1.00;;;;;;5070668;28;20815;-59
2021/04/21 08:54:12;;;;;;;14.23;12.83;;;16.80;1.00;;;;;;5068828;28;20450;-59
2021/04/21 08:56:41;;;;;;;13.23;11.97;;;17.00;1.00;;;;;;5070736;28;20430;-59
2021/04/21 08:59:09;;;;;;;15.20;13.70;;;17.40;1.00;;;;;;5070481;28;20433;-60
2021/04/21 09:01:35;;;;;;;14.73;12.43;;;17.30;1.00;;;;;;5070450;28;20441;-59
2021/04/21 09:04:00;;;;;;;13.30;11.90;;;17.10;1.00;;;;;;5070265;28;20449;-58
2021/04/21 09:06:26;;;;;;;14.00;12.47;;;17.00;1.00;;;;;;5083289;28;20455;-58
2021/04/21 09:08:52;;;;;;;14.03;12.10;;;16.80;1.00;;;;;;5081903;28;20199;-59
2021/04/21 09:11:19;;;;;;;13.33;12.10;;;16.60;1.00;;;;;;5070061;28;20208;-59
2021/04/21 09:13:46;;;;;;;14.20;12.70;;;16.70;1.00;;;;;;5069052;28;20443;-59
2021/04/21 09:16:12;;;;;;;15.23;13.57;;;16.80;1.00;;;;;;5069206;28;20483;-60
2021/04/21 09:18:38;;;;;;;14.77;13.10;;;16.80;1.00;;;;;;5068637;28;20521;-58
2021/04/21 09:21:06;;;;;;;14.17;12.70;;;16.70;1.00;;;;;;5069912;28;20541;-59
2021/04/21 09:23:43;;;;;;;12.90;11.70;;;16.60;1.00;;;;;;5078639;28;20560;-58
2021/04/21 09:26:18;;;;;;;13.40;12.10;;;16.60;1.00;;;;;;5090318;28;20415;-60
2021/04/21 09:28:46;;;;;;;15.70;13.43;;;16.70;1.00;;;;;;5079887;28;20830;-58
2021/04/21 09:31:18;;;;;;;14.80;12.23;;;17.00;1.00;;;;;;5070140;28;20441;-59
2021/04/21 09:33:45;;;;;;;13.33;11.93;;;17.10;1.00;;;;;;5068796;28;20461;-60
2021/04/21 09:36:11;;;;;;;12.90;10.97;;;17.10;1.00;;;;;;5072081;28;20446;-59
2021/04/21 09:38:37;;;;;;;15.47;12.33;;;16.90;1.00;;;;;;5085182;28;20421;-58
2021/04/21 09:41:26;;;;;;;13.70;12.27;;;16.60;1.00;;;;;;5097156;28;20652;-58
2021/04/21 09:43:52;;;;;;;13.77;12.47;;;16.70;1.00;;;;;;5097004;28;20440;-58
2021/04/21 09:46:19;;;;;;;14.80;12.13;;;17.00;1.00;;;;;;5096860;28;20440;-58
2021/04/21 09:48:46;;;;;;;14.00;12.50;;;16.90;1.00;;;;;;5076594;28;20244;-60
2021/04/21 09:51:18;;;;;;;13.57;10.60;;;17.00;1.00;;;;;;5075955;28;20437;-61
2021/04/21 09:53:47;;;;;;;11.83;10.60;;;17.30;1.00;;;;;;5076839;28;20460;-59
2021/04/21 09:56:19;;;;;;;11.00;9.87;;;17.30;1.00;;;;;;5077235;28;20459;-61
2021/04/21 09:58:51;;;;;;;11.00;9.93;;;17.20;1.00;;;;;;5084491;28;20423;-60
2021/04/21 10:01:44;;;;;;;11.40;9.40;;;17.20;1.00;;;;;;5083944;28;20524;-60
2021/04/21 10:04:26;;;;;;;8.23;7.43;;;17.30;1.00;;;;;;5093469;28;20440;-61
2021/04/21 10:06:55;;;;;;;11.33;10.20;;;17.70;1.00;;;;;;5096878;28;20437;-60
2021/04/21 10:09:38;;;;;;;11.80;10.13;;;17.70;1.00;;;;;;5097101;28;21011;-60
2021/04/21 10:12:35;;;;;;;14.20;10.97;;;17.40;1.00;;;;;;5089030;28;20441;-59
2021/04/21 10:15:10;;;;;;;9.67;8.30;;;17.20;1.00;;;;;;5076022;28;20498;-60
2021/04/21 10:17:38;;;;;;;12.00;8.20;;;17.20;1.00;;;;;;5076192;28;20444;-59
2021/04/21 10:20:07;;;;;;;9.43;8.53;;;17.30;1.00;;;;;;5075351;28;20468;-60
2021/04/21 10:22:33;;;;;;;11.70;9.67;;;17.50;1.00;;;;;;5075289;28;20911;-60
2021/04/21 10:24:59;;;;;;;11.20;10.07;;;17.50;1.00;;;;;;5076222;28;20439;-61
2021/04/21 10:27:25;;;;;;;12.33;10.37;;;17.90;1.00;;;;;;5075903;28;20250;-61
2021/04/21 10:29:51;;;;;;;10.80;9.63;;;18.00;1.00;;;;;;5075082;28;20773;-61
2021/04/21 10:32:17;;;;;;;10.27;8.27;;;18.20;1.00;;;;;;5076464;28;20433;-60
2021/04/21 10:34:44;;;;;;;9.00;8.20;;;18.40;1.00;;;;;;5076133;28;20216;-61
2021/04/21 10:37:11;;;;;;;11.50;9.67;;;18.00;1.00;;;;;;5076202;28;20438;-60
2021/04/21 10:39:38;;;;;;;8.80;7.90;;;18.00;1.00;;;;;;5074835;28;20430;-60
2021/04/21 10:42:15;;;;;;;9.90;8.40;;;18.20;1.00;;;;;;5075958;28;20472;-61
2021/04/21 10:44:43;;;;;;;11.60;9.03;;;18.20;1.00;;;;;;5090032;28;20810;-60
2021/04/21 10:47:15;;;;;;;10.90;9.80;;;18.30;1.00;;;;;;5072497;28;20441;-59
2021/04/21 10:49:58;;;;;;;12.30;9.30;;;18.00;1.00;;;;;;5070918;28;20790;-60
2021/04/21 10:52:27;;;;;;;8.97;7.90;;;18.30;1.00;;;;;;5072710;28;20448;-60
2021/04/21 10:55:20;;;;;;;9.37;8.47;;;18.20;1.00;;;;;;5070993;28;20449;-61
2021/04/21 10:58:09;;;;;;;9.53;8.50;;;18.40;1.00;;;;;;5070056;28;20460;-59
2021/04/21 11:00:37;;;;;;;10.50;8.73;;;18.70;1.00;;;;;;5072656;28;20432;-59
2021/04/21 11:03:06;;;;;;;9.90;8.20;;;18.80;1.00;;;;;;5070877;28;20442;-59
2021/04/21 11:05:40;;;;;;;11.00;7.80;;;18.80;1.00;;;;;;5071355;28;20528;-58
2021/04/21 11:08:27;;;;;;;10.80;9.20;;;18.90;1.00;;;;;;5071093;28;20514;-59
2021/04/21 11:11:04;;;;;;;9.77;8.77;;;18.60;1.00;;;;;;5072736;28;20911;-58
2021/04/21 11:13:32;;;;;;;11.00;9.20;;;18.50;1.00;;;;;;5072169;28;20514;-57
2021/04/21 11:15:58;;;;;;;14.43;7.37;;;18.40;1.00;;;;;;5072351;28;20462;-58
2021/04/21 11:18:31;;;;;;;8.40;6.60;;;18.60;1.00;;;;;;5072556;28;20480;-58
2021/04/21 11:20:59;;;;;;;9.13;6.73;;;18.40;1.00;;;;;;5070260;28;20179;-59
2021/04/21 11:23:50;;;;;;;9.00;7.40;;;18.30;1.00;;;;;;5068383;28;20457;-58
2021/04/21 11:26:25;;;;;;;9.70;7.60;;;18.40;1.00;;;;;;5072144;28;20446;-59
2021/04/21 11:29:08;;;;;;;10.30;7.90;;;18.30;1.00;;;;;;5072120;28;20477;-59
2021/04/21 11:31:42;;;;;;;13.43;8.37;;;18.40;1.00;;;;;;5072094;28;20495;-60
2021/04/21 11:34:17;;;;;;;9.27;6.60;;;18.40;1.00;;;;;;5086389;28;20464;-58
2021/04/21 11:37:07;;;;;;;8.67;6.03;;;18.40;1.00;;;;;;5091047;28;20436;-57
2021/04/21 11:39:41;;;;;;;8.97;6.33;;;18.60;1.00;;;;;;5091094;28;20516;-59
2021/04/21 11:42:28;;;;;;;8.47;6.57;;;18.60;1.00;;;;;;5092275;28;20785;-59
2021/04/21 11:44:56;;;;;;;8.50;7.63;;;19.00;1.00;;;;;;5086040;28;20465;-59
2021/04/21 11:47:36;;;;;;;8.93;7.43;;;18.90;1.00;;;;;;5071200;28;20440;-59
2021/04/21 11:50:10;;;;;;;11.73;7.30;;;18.70;1.00;;;;;;5070077;28;20433;-58
2021/04/21 11:52:58;;;;;;;10.13;6.90;;;18.60;1.00;;;;;;5071294;28;20430;-57
2021/04/21 11:55:55;;;;;;;10.00;7.43;;;18.30;1.00;;;;;;5071500;28;20421;-59
2021/04/21 11:58:31;;;;;;;11.77;6.77;;;18.50;1.00;;;;;;5070491;28;20880;-60
2021/04/21 12:01:01;;;;;;;9.90;6.70;;;18.80;1.00;;;;;;5071746;28;20427;-59
2021/04/21 12:03:35;;;;;;;8.33;7.07;;;18.60;1.00;;;;;;5070980;28;20453;-60
2021/04/21 12:06:05;;;;;;;10.43;7.10;;;18.50;1.00;;;;;;5071367;28;20445;-59
2021/04/21 12:08:37;;;;;;;8.20;7.50;;;18.80;1.00;;;;;;5069781;28;20980;-60
2021/04/21 12:11:05;;;;;;;8.87;7.97;;;19.00;1.00;;;;;;5070099;28;21204;-58
2021/04/21 12:13:49;;;;;;;10.57;8.17;;;19.00;1.00;;;;;;5069331;28;20763;-59
2021/04/21 12:16:18;;;;;;;9.03;7.13;;;19.00;1.00;;;;;;5069442;28;20541;-59
2021/04/21 12:18:52;;;;;;;8.97;6.63;;;19.00;1.00;;;;;;5070567;28;20434;-60
2021/04/21 12:21:17;;;;;;;8.10;7.30;;;18.80;1.00;;;;;;5070335;28;20437;-59
2021/04/21 12:23:48;;;;;;;9.97;7.83;;;18.80;1.00;;;;;;5073660;28;20445;-59
2021/04/21 12:26:20;;;;;;;9.37;8.30;;;18.80;1.00;;;;;;5071431;28;20173;-58
2021/04/21 12:29:06;;;;;;;13.70;7.23;;;18.60;1.00;;;;;;5070839;28;20515;-58
2021/04/21 12:31:32;;;;;;;10.70;8.13;;;18.60;1.00;;;;;;5070907;28;20931;-59
2021/04/21 12:34:00;;;;;;;9.73;8.30;;;18.60;1.00;;;;;;5070725;28;20575;-59
2021/04/21 12:36:28;;;;;;;10.47;7.90;;;18.50;1.00;;;;;;5070743;28;20484;-59
2021/04/21 12:39:14;;;;;;;9.87;8.57;;;18.50;1.00;;;;;;5070137;28;20514;-60
2021/04/21 12:41:42;;;;;;;8.90;7.90;;;18.70;1.00;;;;;;5070303;28;20526;-60
2021/04/21 12:44:24;;;;;;;8.80;7.60;;;18.70;1.00;;;;;;5070542;28;20430;-58
2021/04/21 12:46:52;;;;;;;9.60;7.37;;;18.60;1.00;;;;;;5070561;28;20543;-59
2021/04/21 12:49:36;;;;;;;9.73;7.60;;;18.70;1.00;;;;;;5069237;28;20440;-58
2021/04/21 12:52:04;;;;;;;11.20;6.77;;;18.70;1.00;;;;;;5069852;28;20524;-60
2021/04/21 12:54:42;;;;;;;12.30;7.57;;;19.00;1.00;;;;;;5080198;28;20464;-58
2021/04/21 12:57:09;;;;;;;8.80;7.30;;;19.20;1.00;;;;;;5084500;28;20456;-59
2021/04/21 12:59:43;;;;;;;8.17;7.40;;;18.80;1.00;;;;;;5069890;28;20436;-59
2021/04/21 13:02:16;;;;;;;8.60;7.70;;;18.90;1.00;;;;;;5070512;28;20768;-60
2021/04/21 13:04:43;;;;;;;10.50;6.80;;;18.90;1.00;;;;;;5070077;28;20811;-59
2021/04/21 13:07:22;;;;;;;9.27;6.43;;;18.70;1.00;;;;;;5070151;28;20444;-59
2021/04/21 13:09:48;;;;;;;9.07;7.40;;;18.90;1.00;;;;;;5069783;28;20433;-60